Time;durP1;ratioP1;P1;durP2;ratioP2;P2;SDS_P1;SDS_P2;PMS_P1;PMS_P2;Temp;Humidity;BMP_temperature;BMP_pressure;BME280_temperature;BME280_humidity;BME280_pressure;Samples;Min_cycle;Max_cycle;Signal;HPM_P1;HPM_P2
2020/12/22 00:00:53;;;;;;;1.30;0.80;;;10.50;99.90;;;;;;5098436;28;20027;-72
2020/12/22 00:03:18;;;;;;;3.37;0.90;;;10.50;99.90;;;;;;5097814;28;20039;-72
2020/12/22 00:05:46;;;;;;;3.83;1.20;;;10.50;99.90;;;;;;5114228;28;20022;-72
2020/12/22 00:08:12;;;;;;;1.10;0.82;;;10.50;99.90;;;;;;5097338;28;20097;-72
2020/12/22 00:10:38;;;;;;;1.00;0.80;;;10.60;99.90;;;;;;5115219;28;20030;-73
2020/12/22 00:13:03;;;;;;;1.77;0.75;;;10.60;99.90;;;;;;5096664;28;20116;-72
2020/12/22 00:15:29;;;;;;;2.60;0.90;;;10.70;99.90;;;;;;5114911;28;20027;-71
2020/12/22 00:17:55;;;;;;;1.70;0.70;;;10.70;99.90;;;;;;5096909;28;20348;-71
2020/12/22 00:20:20;;;;;;;2.70;1.33;;;10.70;99.90;;;;;;5096964;28;20020;-70
2020/12/22 00:22:49;;;;;;;1.57;0.73;;;10.70;99.90;;;;;;5096857;28;20165;-72
2020/12/22 00:25:14;;;;;;;2.30;1.05;;;10.80;99.90;;;;;;5096170;28;20607;-71
2020/12/22 00:27:40;;;;;;;1.97;0.70;;;10.80;99.90;;;;;;5114883;28;20027;-72
2020/12/22 00:30:06;;;;;;;1.75;0.70;;;10.80;99.90;;;;;;5096570;28;20027;-72
2020/12/22 00:32:33;;;;;;;2.47;1.08;;;10.80;99.90;;;;;;5114870;28;20031;-71
2020/12/22 00:34:58;;;;;;;0.90;0.60;;;10.80;99.90;;;;;;5096879;28;20051;-71
2020/12/22 00:37:24;;;;;;;1.93;1.17;;;10.90;99.90;;;;;;5097182;28;20036;-71
2020/12/22 00:39:50;;;;;;;2.50;0.83;;;10.90;99.90;;;;;;5096326;28;20031;-72
2020/12/22 00:42:15;;;;;;;1.57;0.93;;;11.00;99.90;;;;;;5114472;28;20089;-72
2020/12/22 00:44:41;;;;;;;3.33;0.80;;;11.00;99.90;;;;;;5096632;28;20062;-72
2020/12/22 00:47:06;;;;;;;1.63;0.90;;;11.00;99.90;;;;;;5114496;28;20030;-72
2020/12/22 00:49:32;;;;;;;2.23;0.50;;;11.00;99.90;;;;;;5114111;28;20051;-72
2020/12/22 00:51:59;;;;;;;1.50;0.63;;;11.00;99.90;;;;;;5096471;28;20447;-72
2020/12/22 00:54:25;;;;;;;2.95;0.63;;;11.10;99.90;;;;;;5096193;28;20070;-73
2020/12/22 00:56:51;;;;;;;;;;;11.10;99.90;;;;;;5097213;28;20032;-73
2020/12/22 00:59:17;;;;;;;2.42;0.70;;;11.10;99.90;;;;;;5114557;28;20015;-73
2020/12/22 01:01:43;;;;;;;1.23;0.70;;;11.10;99.90;;;;;;5096559;28;20035;-73
2020/12/22 01:04:08;;;;;;;1.02;0.65;;;11.10;99.90;;;;;;5096803;28;20369;-73
2020/12/22 01:06:38;;;;;;;2.00;0.70;;;11.20;99.90;;;;;;5096378;28;20027;-72
2020/12/22 01:09:06;;;;;;;2.40;1.00;;;11.20;99.90;;;;;;5114163;28;20092;-76
2020/12/22 01:11:39;;;;;;;1.50;0.60;;;11.20;99.90;;;;;;5096296;28;20062;-71
2020/12/22 01:14:06;;;;;;;2.80;1.30;;;11.20;99.90;;;;;;5095633;28;20046;-71
2020/12/22 01:16:31;;;;;;;;;;;11.30;99.90;;;;;;5095971;28;20449;-71
2020/12/22 01:18:57;;;;;;;2.17;0.70;;;11.40;99.90;;;;;;5113931;28;19958;-72
2020/12/22 01:21:23;;;;;;;2.67;1.23;;;11.40;99.90;;;;;;5095640;28;20027;-72
2020/12/22 01:23:49;;;;;;;2.70;1.50;;;11.40;99.90;;;;;;5113846;28;20372;-72
2020/12/22 01:26:22;;;;;;;2.25;0.70;;;11.50;99.90;;;;;;5113835;28;20069;-71
2020/12/22 01:28:49;;;;;;;1.52;0.98;;;11.50;99.90;;;;;;5113564;28;20023;-72
2020/12/22 01:31:25;;;;;;;1.17;0.70;;;11.60;99.90;;;;;;5113884;28;20032;-72
2020/12/22 01:33:52;;;;;;;7.65;3.67;;;11.60;99.90;;;;;;5095350;28;20036;-72
2020/12/22 01:36:18;;;;;;;1.77;0.95;;;11.70;99.90;;;;;;5113613;28;20094;-73
2020/12/22 01:38:44;;;;;;;1.13;0.70;;;11.70;99.90;;;;;;5095675;28;20460;-72
2020/12/22 01:41:10;;;;;;;1.38;0.75;;;11.70;99.90;;;;;;5116337;28;20523;-71
2020/12/22 01:43:36;;;;;;;1.50;0.90;;;11.70;99.90;;;;;;5095691;28;20051;-72
2020/12/22 01:46:02;;;;;;;1.40;0.90;;;11.70;99.90;;;;;;5095704;28;20020;-72
2020/12/22 01:48:28;;;;;;;1.27;0.50;;;11.70;99.90;;;;;;5094983;28;20044;-72
2020/12/22 01:50:54;;;;;;;2.08;1.20;;;11.70;99.90;;;;;;5095228;28;20028;-72
2020/12/22 01:53:20;;;;;;;2.07;1.57;;;11.80;99.90;;;;;;5113336;28;20027;-72
2020/12/22 01:55:45;;;;;;;1.70;0.83;;;11.80;99.90;;;;;;5113203;28;20159;-72
2020/12/22 01:58:11;;;;;;;6.37;3.03;;;11.80;99.90;;;;;;5113493;28;20019;-72
2020/12/22 02:00:37;;;;;;;3.92;1.60;;;11.80;99.90;;;;;;5094668;28;20115;-71
2020/12/22 02:03:05;;;;;;;3.92;2.25;;;11.80;99.90;;;;;;5094953;28;20036;-72
2020/12/22 02:05:33;;;;;;;2.65;1.25;;;11.80;99.90;;;;;;5113248;28;20500;-72
2020/12/22 02:07:59;;;;;;;2.65;0.95;;;11.80;99.90;;;;;;5095072;28;20020;-72
2020/12/22 02:10:25;;;;;;;0.60;0.40;;;11.90;99.90;;;;;;5113080;28;20058;-72
2020/12/22 02:12:51;;;;;;;0.40;0.40;;;11.90;99.90;;;;;;5094580;28;20051;-71
2020/12/22 02:15:16;;;;;;;1.70;0.30;;;11.90;99.90;;;;;;5112939;28;20039;-71
2020/12/22 02:17:42;;;;;;;0.70;0.40;;;11.80;99.90;;;;;;5094860;28;20024;-72
2020/12/22 02:20:08;;;;;;;0.75;0.40;;;11.80;99.90;;;;;;5113042;28;20031;-72
2020/12/22 02:22:34;;;;;;;0.67;0.53;;;11.80;99.90;;;;;;5113252;28;20035;-71
2020/12/22 02:25:00;;;;;;;1.20;0.40;;;11.80;99.90;;;;;;5094638;28;20387;-72
2020/12/22 02:27:26;;;;;;;0.40;0.30;;;11.80;99.90;;;;;;5094567;28;20031;-72
2020/12/22 02:29:51;;;;;;;0.73;0.37;;;11.80;99.90;;;;;;5116707;28;20027;-71
2020/12/22 02:32:17;;;;;;;0.67;0.30;;;11.80;99.90;;;;;;5098353;28;20027;-72
2020/12/22 02:34:44;;;;;;;1.23;0.27;;;11.80;99.90;;;;;;5098410;28;20019;-72
2020/12/22 02:37:10;;;;;;;1.88;0.60;;;11.80;99.90;;;;;;5116563;28;20028;-72
2020/12/22 02:39:35;;;;;;;0.70;0.30;;;11.70;99.90;;;;;;5098258;28;20027;-72
2020/12/22 02:42:01;;;;;;;0.70;0.50;;;11.70;99.90;;;;;;5098325;28;20023;-70
2020/12/22 02:44:27;;;;;;;0.30;0.30;;;11.70;99.90;;;;;;5116481;28;20479;-71
2020/12/22 02:46:53;;;;;;;0.35;0.22;;;11.70;99.90;;;;;;5116711;28;20491;-72
2020/12/22 02:49:18;;;;;;;2.40;0.30;;;11.70;99.90;;;;;;5116751;28;20028;-72
2020/12/22 02:51:44;;;;;;;2.45;0.43;;;11.70;99.90;;;;;;5116680;28;20035;-73
2020/12/22 02:54:09;;;;;;;0.70;0.40;;;11.70;99.90;;;;;;5120582;28;20066;-73
2020/12/22 02:56:35;;;;;;;1.80;0.40;;;11.70;99.90;;;;;;5100853;28;20027;-72
2020/12/22 02:59:01;;;;;;;0.30;0.30;;;11.70;99.90;;;;;;5116301;28;20023;-72
2020/12/22 03:01:26;;;;;;;0.70;0.47;;;11.70;99.90;;;;;;5116277;28;20020;-72
2020/12/22 03:03:52;;;;;;;0.80;0.30;;;11.70;99.90;;;;;;5098321;28;20038;-72
2020/12/22 03:06:18;;;;;;;0.80;0.40;;;11.70;99.90;;;;;;5098007;28;20028;-71
2020/12/22 03:08:43;;;;;;;2.10;0.40;;;11.70;99.90;;;;;;5116625;28;20110;-72
2020/12/22 03:11:09;;;;;;;2.30;0.30;;;11.70;99.90;;;;;;5097799;28;20445;-72
2020/12/22 03:13:35;;;;;;;0.33;0.27;;;11.80;99.90;;;;;;5116251;28;20035;-72
2020/12/22 03:16:00;;;;;;;1.10;0.30;;;11.70;99.90;;;;;;5098223;28;20035;-73
2020/12/22 03:18:26;;;;;;;0.63;0.40;;;11.80;99.90;;;;;;5116474;28;20024;-73
2020/12/22 03:20:52;;;;;;;1.15;0.85;;;11.80;99.90;;;;;;5098219;28;20073;-72
2020/12/22 03:23:17;;;;;;;1.47;0.73;;;11.80;99.90;;;;;;5098675;28;20345;-71
2020/12/22 03:25:43;;;;;;;1.17;0.50;;;11.90;99.90;;;;;;5097673;28;20468;-71
2020/12/22 03:28:08;;;;;;;0.30;0.30;;;11.90;99.90;;;;;;5116009;28;20024;-71
2020/12/22 03:30:34;;;;;;;0.70;0.30;;;11.90;99.90;;;;;;5098262;28;20039;-71
2020/12/22 03:33:00;;;;;;;3.70;0.50;;;11.90;99.90;;;;;;5100111;28;20028;-72
2020/12/22 03:35:25;;;;;;;2.40;0.60;;;12.00;99.90;;;;;;5097360;28;20066;-71
2020/12/22 03:37:51;;;;;;;1.53;0.50;;;12.00;99.90;;;;;;5097409;28;20043;-71
2020/12/22 03:40:17;;;;;;;1.20;0.60;;;12.00;99.90;;;;;;5096662;28;20456;-71
2020/12/22 03:42:43;;;;;;;1.38;0.32;;;12.00;99.90;;;;;;5115753;28;20391;-72
2020/12/22 03:45:10;;;;;;;1.43;0.70;;;12.10;99.90;;;;;;5116594;28;20023;-72
2020/12/22 03:47:36;;;;;;;0.45;0.30;;;12.00;99.90;;;;;;5096904;28;20024;-72
2020/12/22 03:50:02;;;;;;;0.50;0.35;;;12.10;99.90;;;;;;5115192;28;20027;-71
2020/12/22 03:52:28;;;;;;;1.63;0.43;;;12.10;99.90;;;;;;5096841;28;20031;-72
2020/12/22 03:54:54;;;;;;;0.70;0.50;;;12.10;99.90;;;;;;5096929;28;20046;-72
2020/12/22 03:57:19;;;;;;;0.63;0.40;;;12.20;99.90;;;;;;5115531;28;20052;-72
2020/12/22 03:59:45;;;;;;;0.60;0.37;;;12.30;99.90;;;;;;5096787;28;20024;-72
2020/12/22 04:02:11;;;;;;;0.85;0.40;;;12.30;99.90;;;;;;5096754;28;20039;-72
2020/12/22 04:04:37;;;;;;;0.70;0.30;;;12.30;99.90;;;;;;5114864;28;20035;-72
2020/12/22 04:07:03;;;;;;;0.50;0.30;;;12.30;99.90;;;;;;5114942;28;20020;-71
2020/12/22 04:09:28;;;;;;;2.83;0.30;;;12.30;99.90;;;;;;5114919;28;20024;-71
2020/12/22 04:11:54;;;;;;;0.85;0.32;;;12.30;99.90;;;;;;5096570;28;20034;-72
2020/12/22 04:14:20;;;;;;;0.20;0.20;;;12.30;99.90;;;;;;5096426;28;20484;-71
2020/12/22 04:16:47;;;;;;;0.65;0.30;;;12.30;99.90;;;;;;5114696;28;20045;-71
2020/12/22 04:19:13;;;;;;;;;;;12.30;99.90;;;;;;5115256;28;20548;-71
2020/12/22 04:21:39;;;;;;;0.70;0.40;;;12.30;99.90;;;;;;5096233;28;19904;-71
2020/12/22 04:24:05;;;;;;;1.80;0.30;;;12.30;99.90;;;;;;5096219;28;20380;-71
2020/12/22 04:26:31;;;;;;;;;;;12.30;99.90;;;;;;5096538;28;20027;-70
2020/12/22 04:28:57;;;;;;;0.90;0.30;;;12.30;99.90;;;;;;5096231;28;19904;-72
2020/12/22 04:31:23;;;;;;;0.50;0.20;;;12.30;99.90;;;;;;5114699;28;20373;-71
2020/12/22 04:33:53;;;;;;;0.85;0.38;;;12.40;99.90;;;;;;5114176;28;20031;-71
2020/12/22 04:36:20;;;;;;;0.68;0.20;;;12.30;99.90;;;;;;5096337;28;20034;-71
2020/12/22 04:38:46;;;;;;;0.32;0.20;;;12.30;99.90;;;;;;5096140;28;20484;-71
2020/12/22 04:41:14;;;;;;;0.55;0.25;;;12.30;99.90;;;;;;5114300;28;20499;-71
2020/12/22 04:43:44;;;;;;;0.50;0.20;;;12.20;99.90;;;;;;5114394;28;20026;-71
2020/12/22 04:46:10;;;;;;;0.47;0.30;;;12.20;99.90;;;;;;5096681;28;20026;-71
2020/12/22 04:48:38;;;;;;;0.40;0.30;;;12.10;99.90;;;;;;5096332;28;20110;-73
2020/12/22 04:51:08;;;;;;;1.40;0.20;;;12.10;99.90;;;;;;5096041;28;20484;-72
2020/12/22 04:53:34;;;;;;;0.82;0.40;;;12.10;99.90;;;;;;5096311;28;20019;-72
2020/12/22 04:56:01;;;;;;;0.30;0.20;;;12.10;99.90;;;;;;5096114;28;20081;-72
2020/12/22 04:58:28;;;;;;;0.45;0.25;;;12.00;99.90;;;;;;5095727;28;20047;-71
2020/12/22 05:00:58;;;;;;;0.55;0.17;;;12.00;99.90;;;;;;5095761;28;20035;-72
2020/12/22 05:03:24;;;;;;;0.47;0.30;;;12.00;99.90;;;;;;5114169;28;20440;-72
2020/12/22 05:05:50;;;;;;;0.80;0.20;;;12.00;99.90;;;;;;5095792;28;20026;-72
2020/12/22 05:08:16;;;;;;;0.38;0.20;;;12.00;99.90;;;;;;5095809;28;20540;-72
2020/12/22 05:10:43;;;;;;;0.20;0.10;;;12.00;99.90;;;;;;5114455;28;20522;-72
2020/12/22 05:13:09;;;;;;;;;;;11.90;99.90;;;;;;5114956;28;20031;-72
2020/12/22 05:15:35;;;;;;;0.85;0.30;;;11.90;99.90;;;;;;5096147;28;20364;-72
2020/12/22 05:18:02;;;;;;;0.33;0.27;;;11.90;99.90;;;;;;5095974;28;20114;-72
2020/12/22 05:20:28;;;;;;;2.10;0.30;;;11.90;99.90;;;;;;5095880;28;20070;-71
2020/12/22 05:22:55;;;;;;;0.95;0.20;;;11.90;99.90;;;;;;5115747;28;20179;-71
2020/12/22 05:25:21;;;;;;;2.30;0.20;;;12.00;99.90;;;;;;5097396;28;20598;-72
2020/12/22 05:27:51;;;;;;;0.20;0.20;;;12.00;99.90;;;;;;5114180;28;20392;-72
2020/12/22 05:30:17;;;;;;;0.20;0.20;;;12.00;99.90;;;;;;5114289;28;20023;-72
2020/12/22 05:32:44;;;;;;;0.50;0.30;;;12.10;99.90;;;;;;5095688;28;20027;-72
2020/12/22 05:35:13;;;;;;;2.28;0.30;;;12.10;99.90;;;;;;5095861;28;20104;-72
2020/12/22 05:37:40;;;;;;;3.17;2.05;;;12.10;99.90;;;;;;5095866;28;20545;-72
2020/12/22 05:40:09;;;;;;;0.50;0.45;;;12.10;99.90;;;;;;5114164;28;20027;-72
2020/12/22 05:42:36;;;;;;;1.15;0.20;;;12.20;99.90;;;;;;5095763;28;20065;-71
2020/12/22 05:45:04;;;;;;;0.20;0.15;;;12.20;99.90;;;;;;5114456;28;20044;-72
2020/12/22 05:47:30;;;;;;;0.35;0.20;;;12.20;99.90;;;;;;5114074;28;20050;-73
2020/12/22 05:49:57;;;;;;;0.40;0.20;;;12.20;99.90;;;;;;5114283;28;20054;-71
2020/12/22 05:52:25;;;;;;;1.65;0.20;;;12.30;99.90;;;;;;5095029;28;20033;-71
2020/12/22 05:54:56;;;;;;;1.25;0.30;;;12.30;99.90;;;;;;5113474;28;20027;-71
2020/12/22 05:57:27;;;;;;;2.25;0.30;;;12.30;99.90;;;;;;5094960;28;20024;-71
2020/12/22 05:59:53;;;;;;;0.47;0.20;;;12.30;99.90;;;;;;5095112;28;20020;-71
2020/12/22 06:02:32;;;;;;;0.43;0.28;;;12.40;99.90;;;;;;5096182;28;20019;-71
2020/12/22 06:05:02;;;;;;;0.20;0.20;;;12.40;99.90;;;;;;5117319;28;20028;-71
2020/12/22 06:07:28;;;;;;;0.47;0.47;;;12.40;99.90;;;;;;5098914;28;20020;-71
2020/12/22 06:09:55;;;;;;;0.20;0.20;;;12.50;99.90;;;;;;5117308;28;20073;-70
2020/12/22 06:12:22;;;;;;;1.65;0.65;;;12.50;99.90;;;;;;5117279;28;20027;-72
2020/12/22 06:14:50;;;;;;;0.20;0.20;;;12.60;99.90;;;;;;5117194;28;20097;-71
2020/12/22 06:17:16;;;;;;;0.10;0.10;;;12.70;99.90;;;;;;5117531;28;20161;-71
2020/12/22 06:19:44;;;;;;;0.63;0.15;;;12.70;99.90;;;;;;5118245;28;20476;-72
2020/12/22 06:22:17;;;;;;;0.82;0.30;;;12.80;99.90;;;;;;5099040;28;20076;-71
2020/12/22 06:24:44;;;;;;;1.75;0.55;;;12.80;99.90;;;;;;5117045;28;20510;-71
2020/12/22 06:27:12;;;;;;;1.63;0.50;;;12.80;99.90;;;;;;5098606;28;20058;-70
2020/12/22 06:29:45;;;;;;;0.80;0.40;;;12.90;99.90;;;;;;5116791;28;20388;-70
2020/12/22 06:32:16;;;;;;;1.17;0.40;;;12.90;99.90;;;;;;5098717;28;20118;-71
2020/12/22 06:34:45;;;;;;;1.08;0.30;;;12.90;99.90;;;;;;5098837;28;20028;-71
2020/12/22 06:37:11;;;;;;;0.70;0.22;;;13.00;99.90;;;;;;5098688;28;20039;-71
2020/12/22 06:39:45;;;;;;;9.23;4.00;;;13.00;99.90;;;;;;5098353;28;20333;-71
2020/12/22 06:42:28;;;;;;;7.63;2.30;;;13.00;99.90;;;;;;5116928;28;20031;-71
2020/12/22 06:44:54;;;;;;;2.22;0.95;;;13.00;99.90;;;;;;5120199;28;20112;-72
2020/12/22 06:47:34;;;;;;;1.75;0.40;;;12.90;99.90;;;;;;5100153;28;20092;-72
2020/12/22 06:50:00;;;;;;;3.22;1.88;;;12.90;99.90;;;;;;5117280;28;20023;-72
2020/12/22 06:52:33;;;;;;;1.95;0.40;;;12.80;99.90;;;;;;5118774;28;20042;-71
2020/12/22 06:54:59;;;;;;;1.50;0.57;;;12.80;99.90;;;;;;5098648;28;20066;-71
2020/12/22 06:57:41;;;;;;;;;;;12.80;99.90;;;;;;5098877;28;20065;-72
2020/12/22 07:00:27;;;;;;;4.95;2.88;;;12.70;99.90;;;;;;5117367;28;20002;-73
2020/12/22 07:03:12;;;;;;;5.07;1.65;;;12.70;99.90;;;;;;5099069;28;20051;-70
2020/12/22 07:05:43;;;;;;;2.58;1.27;;;12.60;99.90;;;;;;5118548;22;20148;-63
2020/12/22 07:08:11;;;;;;;1.30;0.40;;;12.50;99.90;;;;;;5075475;28;20058;-65
2020/12/22 07:10:40;;;;;;;1.73;1.13;;;12.50;99.90;;;;;;5075529;28;20404;-63
2020/12/22 07:13:08;;;;;;;4.20;2.15;;;12.40;99.90;;;;;;5075788;28;20025;-64
2020/12/22 07:15:36;;;;;;;1.40;0.70;;;12.30;99.90;;;;;;5074815;28;20023;-64
2020/12/22 07:18:16;;;;;;;2.38;1.55;;;12.20;99.90;;;;;;5057165;28;20166;-65
2020/12/22 07:20:43;;;;;;;2.70;1.27;;;12.10;99.90;;;;;;5057659;28;20107;-64
2020/12/22 07:23:10;;;;;;;2.08;0.77;;;12.10;99.90;;;;;;5057186;28;20481;-65
2020/12/22 07:25:37;;;;;;;0.95;0.40;;;12.00;99.90;;;;;;5061091;28;20017;-63
2020/12/22 07:28:05;;;;;;;1.45;1.08;;;12.00;99.90;;;;;;5059178;28;20048;-64
2020/12/22 07:30:31;;;;;;;1.05;0.70;;;12.00;99.90;;;;;;5057671;28;20135;-65
2020/12/22 07:32:59;;;;;;;1.02;0.50;;;11.90;99.90;;;;;;5038472;28;20029;-63
2020/12/22 07:35:26;;;;;;;0.98;0.35;;;11.90;99.90;;;;;;5055790;28;20032;-64
2020/12/22 07:37:52;;;;;;;0.85;0.60;;;11.90;99.90;;;;;;5037715;28;20025;-65
2020/12/22 07:40:17;;;;;;;0.50;0.32;;;11.90;99.90;;;;;;5055250;28;20028;-64
2020/12/22 07:42:43;;;;;;;0.40;0.35;;;11.90;99.90;;;;;;5055358;28;20427;-64
2020/12/22 07:45:09;;;;;;;0.57;0.40;;;11.80;99.90;;;;;;5055477;28;20446;-64
2020/12/22 07:47:34;;;;;;;1.40;0.80;;;11.80;99.90;;;;;;5055567;28;20021;-64
2020/12/22 07:50:16;;;;;;;2.20;0.40;;;11.80;99.90;;;;;;5055807;28;20072;-63
2020/12/22 07:52:42;;;;;;;1.02;0.50;;;11.80;99.90;;;;;;5055443;28;20060;-65
2020/12/22 07:55:08;;;;;;;2.80;0.60;;;11.80;99.90;;;;;;5055487;28;20025;-65
2020/12/22 07:57:38;;;;;;;1.15;0.30;;;11.80;99.90;;;;;;5055610;28;20417;-65
2020/12/22 08:00:06;;;;;;;1.58;0.40;;;11.80;99.90;;;;;;5038310;28;20038;-64
2020/12/22 08:02:32;;;;;;;1.77;0.35;;;11.80;99.90;;;;;;5056696;28;20477;-64
2020/12/22 08:05:13;;;;;;;4.10;1.88;;;11.80;99.90;;;;;;5056932;28;20025;-66
2020/12/22 08:07:42;;;;;;;2.30;1.33;;;11.80;99.90;;;;;;5056194;28;20195;-64
2020/12/22 08:10:12;;;;;;;2.17;0.90;;;11.80;99.90;;;;;;5055043;28;20079;-63
2020/12/22 08:12:39;;;;;;;2.25;0.70;;;11.80;99.90;;;;;;5054908;28;20024;-64
2020/12/22 08:15:06;;;;;;;1.55;0.70;;;11.80;99.90;;;;;;5054854;28;20033;-65
2020/12/22 08:17:39;;;;;;;1.13;0.57;;;11.80;99.90;;;;;;5054769;28;20053;-64
2020/12/22 08:20:05;;;;;;;0.47;0.47;;;11.80;99.90;;;;;;5055195;28;20025;-64
2020/12/22 08:22:32;;;;;;;0.77;0.43;;;11.80;99.90;;;;;;5055371;28;20027;-64
2020/12/22 08:25:01;;;;;;;1.17;0.60;;;11.90;99.90;;;;;;5054872;28;20029;-64
2020/12/22 08:27:29;;;;;;;1.98;0.90;;;11.80;99.90;;;;;;5054756;28;20354;-64
2020/12/22 08:29:54;;;;;;;3.33;0.70;;;11.80;99.90;;;;;;5055725;28;20025;-65
2020/12/22 08:32:24;;;;;;;0.97;0.53;;;11.80;99.90;;;;;;5055462;28;20374;-65
2020/12/22 08:34:58;;;;;;;1.35;0.43;;;11.90;99.90;;;;;;5055397;28;20036;-66
2020/12/22 08:37:25;;;;;;;1.17;0.47;;;11.80;99.90;;;;;;5055653;28;20061;-70
2020/12/22 08:39:52;;;;;;;1.70;0.73;;;11.90;99.90;;;;;;5054723;28;20017;-65
2020/12/22 08:42:20;;;;;;;1.67;1.02;;;11.90;99.90;;;;;;5054687;28;20110;-66
2020/12/22 08:44:51;;;;;;;4.28;1.92;;;11.90;99.90;;;;;;5054791;28;20022;-65
2020/12/22 08:47:18;;;;;;;4.15;1.67;;;11.90;99.90;;;;;;5054396;28;20076;-65
2020/12/22 08:49:44;;;;;;;1.85;0.90;;;11.90;99.90;;;;;;5054651;28;20047;-65
2020/12/22 08:52:15;;;;;;;1.33;0.90;;;11.90;99.90;;;;;;5054538;28;20155;-65
2020/12/22 08:54:45;;;;;;;3.58;1.08;;;11.90;99.90;;;;;;5054317;28;20032;-64
2020/12/22 08:57:15;;;;;;;3.35;0.70;;;11.90;99.90;;;;;;5053635;28;20033;-64
2020/12/22 08:59:41;;;;;;;2.22;1.02;;;11.90;99.90;;;;;;5035955;28;20025;-65
2020/12/22 09:02:27;;;;;;;3.33;0.90;;;11.90;99.90;;;;;;5054151;28;20104;-65
2020/12/22 09:04:53;;;;;;;8.07;3.30;;;11.90;99.90;;;;;;5054702;28;20021;-65
2020/12/22 09:07:18;;;;;;;6.10;3.92;;;11.90;99.90;;;;;;5035489;28;20535;-66
2020/12/22 09:09:44;;;;;;;3.37;1.87;;;11.90;99.90;;;;;;5053329;28;20036;-62
2020/12/22 09:12:11;;;;;;;2.00;0.97;;;11.90;99.90;;;;;;5035629;28;20035;-63
2020/12/22 09:14:47;;;;;;;2.35;0.60;;;11.90;99.90;;;;;;5053353;28;20029;-63
2020/12/22 09:17:27;;;;;;;2.20;0.97;;;11.90;99.90;;;;;;5053884;28;20025;-63
2020/12/22 09:19:53;;;;;;;2.15;0.85;;;11.90;99.90;;;;;;5053725;28;20021;-62
2020/12/22 09:22:23;;;;;;;2.03;0.80;;;11.90;99.90;;;;;;5035467;28;20082;-63
2020/12/22 09:24:50;;;;;;;2.33;0.93;;;11.90;99.90;;;;;;5053582;28;20029;-62
2020/12/22 09:27:16;;;;;;;2.58;0.60;;;11.90;99.90;;;;;;5053129;28;20028;-63
2020/12/22 09:29:42;;;;;;;2.22;0.75;;;12.00;99.90;;;;;;5053429;28;20025;-63
2020/12/22 09:32:11;;;;;;;1.55;0.90;;;12.00;99.90;;;;;;5035176;28;20108;-61
2020/12/22 09:34:38;;;;;;;1.42;1.00;;;12.00;99.90;;;;;;5053240;28;20028;-62
2020/12/22 09:37:06;;;;;;;3.22;0.80;;;12.10;99.90;;;;;;5034955;28;20036;-62
2020/12/22 09:39:34;;;;;;;2.58;1.10;;;12.10;99.90;;;;;;5053107;28;20122;-62
2020/12/22 09:42:00;;;;;;;2.03;1.30;;;12.10;99.90;;;;;;5053132;28;20060;-62
2020/12/22 09:44:26;;;;;;;2.95;1.13;;;12.20;99.90;;;;;;5053168;28;20051;-62
2020/12/22 09:46:54;;;;;;;2.65;1.52;;;12.20;99.90;;;;;;5052994;28;20033;-62
2020/12/22 09:49:20;;;;;;;1.98;1.17;;;12.30;99.90;;;;;;5052849;28;20079;-62
2020/12/22 09:51:46;;;;;;;1.73;1.23;;;12.40;99.90;;;;;;5052785;28;20036;-62
2020/12/22 09:54:12;;;;;;;1.95;0.80;;;12.40;99.90;;;;;;5052638;28;20029;-62
2020/12/22 09:56:38;;;;;;;2.40;1.30;;;12.50;99.90;;;;;;5035090;28;20049;-64
2020/12/22 09:59:04;;;;;;;1.17;0.75;;;12.50;99.90;;;;;;5052721;28;20029;-62
2020/12/22 10:01:30;;;;;;;2.00;1.00;;;12.60;99.90;;;;;;5052737;28;20138;-62
2020/12/22 10:03:56;;;;;;;1.05;0.95;;;12.50;99.90;;;;;;5053973;28;20294;-63
2020/12/22 10:06:24;;;;;;;2.13;0.82;;;12.50;99.90;;;;;;5055641;28;20037;-62
2020/12/22 10:08:50;;;;;;;1.30;0.98;;;12.50;99.90;;;;;;5054098;28;20367;-62
2020/12/22 10:11:17;;;;;;;1.60;0.95;;;12.50;99.90;;;;;;5054029;28;20485;-62
2020/12/22 10:13:43;;;;;;;3.00;0.85;;;12.50;99.90;;;;;;5054034;28;20028;-61
2020/12/22 10:16:13;;;;;;;1.50;0.90;;;12.50;99.90;;;;;;5054566;28;20025;-61
2020/12/22 10:18:39;;;;;;;1.02;0.70;;;12.50;99.90;;;;;;5054132;28;20033;-61
2020/12/22 10:21:09;;;;;;;2.58;0.85;;;12.40;99.90;;;;;;5053750;28;20039;-61
2020/12/22 10:23:36;;;;;;;2.40;1.65;;;12.40;99.90;;;;;;5053747;28;20017;-61
2020/12/22 10:26:07;;;;;;;6.97;0.90;;;12.40;99.90;;;;;;5052592;28;20029;-60
2020/12/22 10:28:34;;;;;;;2.92;0.90;;;12.40;99.90;;;;;;5053423;28;20021;-62
2020/12/22 10:31:00;;;;;;;3.40;1.00;;;12.40;99.90;;;;;;5034670;28;20051;-61
2020/12/22 10:33:27;;;;;;;2.40;0.93;;;12.40;99.90;;;;;;5052399;28;20044;-60
2020/12/22 10:35:53;;;;;;;2.90;1.50;;;12.40;99.90;;;;;;5052567;28;20021;-60
2020/12/22 10:38:19;;;;;;;2.10;0.80;;;12.40;99.90;;;;;;5052384;28;20033;-61
2020/12/22 10:40:45;;;;;;;3.40;0.88;;;12.40;99.90;;;;;;5034490;28;20504;-61
2020/12/22 10:43:11;;;;;;;1.63;0.50;;;12.50;99.90;;;;;;5053036;28;20033;-61
2020/12/22 10:45:37;;;;;;;3.38;1.00;;;12.50;99.90;;;;;;5054192;28;20110;-62
2020/12/22 10:48:04;;;;;;;1.52;0.70;;;12.50;99.90;;;;;;5052671;28;20116;-62
2020/12/22 10:50:30;;;;;;;1.45;0.95;;;12.60;99.90;;;;;;5037724;28;20032;-61
2020/12/22 10:52:56;;;;;;;1.95;0.75;;;12.60;99.90;;;;;;5038663;28;20116;-62
2020/12/22 10:55:23;;;;;;;1.90;0.70;;;12.60;99.90;;;;;;5056279;28;20033;-62
2020/12/22 10:57:49;;;;;;;2.35;1.05;;;12.60;99.90;;;;;;5038576;28;20025;-62
2020/12/22 11:00:14;;;;;;;2.78;0.80;;;12.60;99.90;;;;;;5057233;28;20531;-60
2020/12/22 11:02:40;;;;;;;1.00;0.60;;;12.60;99.90;;;;;;5057558;28;20028;-61
2020/12/22 11:05:06;;;;;;;1.17;0.70;;;12.60;99.90;;;;;;5057378;28;20830;-61
2020/12/22 11:07:41;;;;;;;1.08;0.75;;;12.60;99.90;;;;;;5057496;28;20052;-62
2020/12/22 11:10:07;;;;;;;4.70;2.63;;;12.70;99.90;;;;;;5056649;28;20025;-61
2020/12/22 11:12:32;;;;;;;1.20;0.90;;;12.70;99.90;;;;;;5057045;28;20032;-62
2020/12/22 11:14:59;;;;;;;1.37;0.83;;;12.70;99.90;;;;;;5056021;28;20040;-60
2020/12/22 11:17:25;;;;;;;;;;;12.70;99.90;;;;;;5056654;28;20263;-62
2020/12/22 11:19:51;;;;;;;1.95;0.90;;;12.70;99.90;;;;;;5056613;28;20361;-62
2020/12/22 11:22:16;;;;;;;2.15;0.68;;;12.70;99.90;;;;;;5038740;28;20520;-61
2020/12/22 11:24:42;;;;;;;1.10;0.60;;;12.70;99.90;;;;;;5055726;28;20474;-61
2020/12/22 11:27:07;;;;;;;0.77;0.60;;;12.80;99.90;;;;;;5055740;28;20063;-60
2020/12/22 11:29:33;;;;;;;3.47;0.80;;;12.80;99.90;;;;;;5055868;28;20025;-61
2020/12/22 11:31:59;;;;;;;1.50;0.70;;;12.80;99.90;;;;;;5055347;28;20029;-61
2020/12/22 11:34:25;;;;;;;1.07;0.70;;;12.80;99.90;;;;;;5055686;28;20021;-61
2020/12/22 11:36:52;;;;;;;2.97;0.70;;;12.80;99.90;;;;;;5055400;28;20478;-61
2020/12/22 11:39:19;;;;;;;3.70;0.70;;;12.80;99.90;;;;;;5055949;28;20025;-62
2020/12/22 11:41:45;;;;;;;1.55;0.70;;;12.80;99.90;;;;;;5055544;28;20013;-62
2020/12/22 11:44:11;;;;;;;1.92;1.13;;;12.70;99.90;;;;;;5055427;28;20594;-62
2020/12/22 11:46:37;;;;;;;5.30;1.07;;;12.70;99.90;;;;;;5055681;28;20112;-63
2020/12/22 11:49:05;;;;;;;2.42;0.80;;;12.70;99.90;;;;;;5055350;28;20104;-62
2020/12/22 11:51:30;;;;;;;1.70;0.80;;;12.70;99.90;;;;;;5055824;28;20036;-63
2020/12/22 11:53:56;;;;;;;4.17;1.20;;;12.70;99.90;;;;;;5056251;28;20374;-61
2020/12/22 11:56:22;;;;;;;2.57;0.90;;;12.70;99.90;;;;;;5055965;28;20785;-62
2020/12/22 11:58:47;;;;;;;1.80;0.95;;;12.70;99.90;;;;;;5055385;28;20029;-61
2020/12/22 12:01:13;;;;;;;1.83;1.10;;;12.70;99.90;;;;;;5037172;28;20036;-62
2020/12/22 12:03:41;;;;;;;5.03;2.67;;;12.80;99.90;;;;;;5055387;28;20052;-61
2020/12/22 12:06:10;;;;;;;1.98;1.08;;;12.80;99.90;;;;;;5055334;28;20271;-61
2020/12/22 12:08:36;;;;;;;3.53;1.55;;;12.80;99.90;;;;;;5055488;28;20028;-60
2020/12/22 12:11:02;;;;;;;;;;;12.90;99.90;;;;;;5055401;28;20036;-61
2020/12/22 12:13:28;;;;;;;3.03;1.52;;;12.90;99.90;;;;;;5054982;28;19987;-61
2020/12/22 12:15:53;;;;;;;4.53;1.67;;;13.00;99.90;;;;;;5054990;28;20024;-60
2020/12/22 12:18:19;;;;;;;1.10;0.70;;;13.00;99.90;;;;;;5036602;28;20225;-60
2020/12/22 12:20:44;;;;;;;2.53;1.20;;;13.10;99.90;;;;;;5054696;28;20150;-61
2020/12/22 12:23:10;;;;;;;6.35;1.95;;;13.10;99.90;;;;;;5056149;28;20037;-63
2020/12/22 12:25:36;;;;;;;2.13;1.20;;;13.00;99.90;;;;;;5056429;28;20033;-63
2020/12/22 12:28:01;;;;;;;4.23;1.70;;;13.00;99.90;;;;;;5055288;28;20029;-62
2020/12/22 12:30:27;;;;;;;6.13;3.50;;;13.00;99.90;;;;;;5055486;28;20025;-63
2020/12/22 12:32:52;;;;;;;4.47;1.33;;;13.00;99.90;;;;;;5056498;28;20453;-64
2020/12/22 12:35:18;;;;;;;5.03;1.73;;;13.00;99.90;;;;;;5038222;28;20032;-63
2020/12/22 12:37:44;;;;;;;2.97;1.10;;;13.00;99.90;;;;;;5056445;28;20039;-63
2020/12/22 12:40:10;;;;;;;2.05;1.30;;;13.00;99.90;;;;;;5056958;28;20021;-65
2020/12/22 12:42:35;;;;;;;2.83;1.20;;;13.00;99.90;;;;;;5056503;28;20048;-63
2020/12/22 12:45:01;;;;;;;2.95;1.70;;;13.00;99.90;;;;;;5058777;28;20048;-64
2020/12/22 12:47:27;;;;;;;4.70;2.10;;;13.00;99.90;;;;;;5064302;28;20116;-61